createdAt,value
2017-03-16T00:01:01.698Z,54.25
2017-03-16T00:02:11.619Z,54.44
2017-03-16T00:03:21.873Z,54.53
2017-03-16T00:04:31.462Z,54.53
2017-03-16T00:05:41.371Z,54.63
2017-03-16T00:06:51.369Z,54.53
2017-03-16T00:08:01.313Z,54.53
2017-03-16T00:09:11.569Z,54.63
2017-03-16T00:10:21.539Z,54.44
2017-03-16T00:11:31.646Z,54.53
2017-03-16T00:12:41.559Z,54.63
2017-03-16T00:13:51.428Z,54.35
2017-03-16T00:15:01.604Z,54.63
2017-03-16T00:16:11.648Z,54.72
2017-03-16T00:17:21.577Z,54.63
2017-03-16T00:18:31.272Z,54.53
2017-03-16T00:19:40.901Z,54.53
2017-03-16T00:20:51.087Z,54.72
2017-03-16T00:22:01.128Z,54.72
2017-03-16T00:23:11.296Z,54.91
2017-03-16T00:24:21.260Z,54.63
2017-03-16T00:26:03.274Z,54.82
2017-03-16T00:27:13.247Z,54.82
2017-03-16T00:28:23.174Z,54.82
2017-03-16T00:29:33.086Z,54.63
2017-03-16T00:30:43.001Z,54.98
2017-03-16T00:31:52.936Z,55.17
2017-03-16T00:33:02.960Z,55.96
2017-03-16T00:34:12.970Z,56.15
2017-03-16T00:35:21.932Z,56.03
2017-03-16T00:36:31.910Z,55.96
2017-03-16T00:37:42.155Z,56.22
2017-03-16T00:38:52.091Z,55.93
2017-03-16T00:40:02.002Z,56.12
2017-03-16T00:41:12.012Z,56.05
2017-03-16T00:42:21.672Z,56.24
2017-03-16T00:43:31.499Z,56.12
2017-03-16T00:44:41.428Z,56.03
2017-03-16T00:45:51.332Z,55.93
2017-03-16T00:47:00.947Z,55.93
2017-03-16T00:48:10.940Z,56.79
2017-03-16T00:49:21.120Z,56.6
2017-03-16T00:50:30.736Z,56.6
2017-03-16T00:51:40.773Z,56.12
2017-03-16T00:52:50.694Z,56.6
2017-03-16T00:54:00.751Z,56.41
2017-03-16T00:55:10.949Z,56.41
2017-03-16T00:56:20.852Z,56.6
2017-03-16T00:57:30.765Z,56.88
2017-03-16T00:58:40.843Z,56.88
2017-03-16T00:59:50.484Z,56.51
2017-03-16T01:01:00.643Z,56.6
2017-03-16T01:02:10.636Z,56.51
2017-03-16T01:03:20.613Z,56.7
2017-03-16T01:04:30.595Z,56.88
2017-03-16T01:05:40.513Z,56.88
2017-03-16T01:06:50.683Z,56.88
2017-03-16T01:08:00.420Z,56.88
2017-03-16T01:09:10.373Z,56.98
2017-03-16T01:10:20.315Z,56.79
2017-03-16T01:11:29.898Z,56.98
2017-03-16T01:12:40.080Z,56.88
2017-03-16T01:13:49.998Z,56.6
2017-03-16T01:14:59.924Z,56.6
2017-03-16T01:16:09.901Z,56.79
2017-03-16T01:17:19.901Z,56.98
2017-03-16T01:18:30.114Z,56.88
2017-03-16T01:19:40.072Z,56.98
2017-03-16T01:20:50.034Z,56.88
2017-03-16T01:22:00.090Z,57.07
2017-03-16T01:23:10.080Z,57.07
2017-03-16T01:24:20.256Z,57.45
2017-03-16T01:25:30.184Z,57.65
2017-03-16T01:26:39.785Z,57.17
2017-03-16T01:27:49.706Z,57.45
2017-03-16T01:28:59.025Z,57.45
2017-03-16T01:30:09.232Z,57.65
2017-03-16T01:31:19.179Z,58.03
2017-03-16T01:32:29.315Z,57.65
2017-03-16T01:33:39.306Z,58.22
2017-03-16T01:34:49.388Z,58.4
2017-03-16T01:35:59.580Z,57.74
2017-03-16T01:37:08.844Z,57.84
2017-03-16T01:38:18.521Z,57.93
2017-03-16T01:39:28.132Z,57.84
2017-03-16T01:40:38.080Z,57.52
2017-03-16T01:41:48.241Z,57.84
2017-03-16T01:42:58.235Z,57.84
2017-03-16T01:44:08.161Z,57.9
2017-03-16T01:45:18.088Z,57.84
2017-03-16T01:46:28.120Z,58.31
2017-03-16T01:47:38.310Z,58.18
2017-03-16T01:48:48.238Z,58.12
2017-03-16T01:49:57.508Z,57.93
2017-03-16T01:51:07.432Z,57.93
2017-03-16T01:52:17.358Z,57.9
2017-03-16T01:53:27.679Z,58.28
2017-03-16T01:54:36.978Z,58.09
2017-03-16T01:55:46.933Z,57.9
2017-03-16T01:56:56.891Z,58.66
2017-03-16T01:58:06.884Z,58.47
2017-03-16T01:59:17.095Z,58.57
2017-03-16T02:00:26.730Z,58.57
2017-03-16T02:01:36.646Z,58.57
2017-03-16T02:02:46.248Z,58.66
2017-03-16T02:03:56.177Z,58.66
2017-03-16T02:05:06.424Z,58.76
2017-03-16T02:06:16.365Z,58.95
2017-03-16T02:07:26.316Z,58.85
2017-03-16T02:08:35.904Z,59.05
2017-03-16T02:09:45.828Z,59.14
2017-03-16T02:10:55.344Z,58.76
2017-03-16T02:12:05.282Z,58.76
2017-03-16T02:13:15.363Z,58.76
2017-03-16T02:14:24.975Z,59.14
2017-03-16T02:15:34.989Z,59.71
2017-03-16T02:16:45.392Z,59.42
2017-03-16T02:17:55.323Z,59.61
2017-03-16T02:19:04.667Z,59.33
2017-03-16T02:20:14.620Z,59.42
2017-03-16T02:21:24.550Z,59.8
2017-03-16T02:22:34.684Z,59.52
2017-03-16T02:23:44.803Z,59.99
2017-03-16T02:24:54.390Z,59.99
2017-03-16T02:26:04.012Z,60.28
2017-03-16T02:27:13.979Z,59.99
2017-03-16T02:28:24.193Z,60.18
2017-03-16T02:29:34.113Z,60.38
2017-03-16T02:30:43.729Z,60.28
2017-03-16T02:31:53.321Z,60.57
2017-03-16T02:33:03.092Z,60.66
2017-03-16T02:34:13.307Z,61.23
2017-03-16T02:35:23.246Z,60.94
2017-03-16T02:36:33.278Z,61.42
2017-03-16T02:37:42.871Z,61.1
2017-03-16T02:38:52.906Z,61.29
2017-03-16T02:40:03.117Z,61.1
2017-03-16T02:41:12.698Z,61.68
2017-03-16T02:42:22.369Z,61.58
2017-03-16T02:43:32.420Z,61.39
2017-03-16T02:44:41.771Z,62.05
2017-03-16T02:45:51.950Z,62.15
2017-03-16T02:47:01.718Z,62.24
2017-03-16T02:48:11.684Z,61.68
2017-03-16T02:49:21.792Z,62.24
2017-03-16T02:50:31.470Z,62.53
2017-03-16T02:51:41.695Z,62.34
2017-03-16T02:52:51.628Z,62.81
2017-03-16T02:54:01.619Z,62.91
2017-03-16T02:55:11.578Z,63.1
2017-03-16T02:56:21.502Z,63.39
2017-03-16T02:57:31.710Z,62.91
2017-03-16T02:58:41.636Z,62.53
2017-03-16T02:59:51.565Z,62.72
2017-03-16T03:01:01.161Z,63.48
2017-03-16T03:02:11.101Z,63.48
2017-03-16T03:03:21.368Z,63.29
2017-03-16T03:04:30.951Z,63.57
2017-03-16T03:05:40.866Z,63.48
2017-03-16T03:06:50.845Z,63.39
2017-03-16T03:08:00.474Z,62.72
2017-03-16T03:09:10.651Z,63.01
2017-03-16T03:10:20.579Z,62.81
2017-03-16T03:11:30.496Z,62.53
2017-03-16T03:12:40.508Z,62.91
2017-03-16T03:13:50.102Z,62.91
2017-03-16T03:14:59.993Z,62.91
2017-03-16T03:16:09.925Z,62.91
2017-03-16T03:17:19.572Z,62.72
2017-03-16T03:18:29.519Z,63.1
2017-03-16T03:19:39.431Z,62.72
2017-03-16T03:20:49.705Z,63.01
2017-03-16T03:21:58.999Z,62.81
2017-03-16T03:23:09.017Z,62.53
2017-03-16T03:24:18.595Z,62.43
2017-03-16T03:25:28.618Z,62.81
2017-03-16T03:26:38.862Z,62.91
2017-03-16T03:27:48.786Z,63.01
2017-03-16T03:28:58.932Z,63.39
2017-03-16T03:30:08.852Z,63.39
2017-03-16T03:31:18.914Z,63.29
2017-03-16T03:32:28.755Z,63.48
2017-03-16T03:33:38.373Z,62.81
2017-03-16T03:34:48.560Z,63.39
2017-03-16T03:35:58.574Z,63.01
2017-03-16T03:37:08.475Z,63.01
2017-03-16T03:38:18.674Z,63.01
2017-03-16T03:39:28.615Z,63.39
2017-03-16T03:40:38.521Z,63.01
2017-03-16T03:41:48.246Z,63.48
2017-03-16T03:42:58.178Z,63.1
2017-03-16T03:44:08.348Z,62.81
2017-03-16T03:45:18.344Z,62.72
2017-03-16T03:46:28.512Z,63.1
2017-03-16T03:47:38.473Z,62.72
2017-03-16T03:48:48.389Z,62.72
2017-03-16T03:49:58.654Z,63.39
2017-03-16T03:51:08.226Z,63.29
2017-03-16T03:52:18.182Z,63.48
2017-03-16T03:53:28.189Z,63.39
2017-03-16T03:54:37.983Z,63.95
2017-03-16T03:55:47.963Z,64.24
2017-03-16T03:56:57.886Z,64.05
2017-03-16T03:58:07.852Z,64.24
2017-03-16T03:59:17.779Z,64.53
2017-03-16T04:00:27.449Z,64.34
2017-03-16T04:01:37.644Z,64.02
2017-03-16T04:02:47.242Z,65.06
2017-03-16T04:03:57.155Z,65.06
2017-03-16T04:05:07.071Z,65.35
2017-03-16T04:06:16.998Z,65.54
2017-03-16T04:07:26.959Z,65.25
2017-03-16T04:08:36.949Z,65.44
2017-03-16T04:09:46.918Z,65.73
2017-03-16T04:10:56.867Z,65.92
2017-03-16T04:12:06.766Z,65.54
2017-03-16T04:13:17.167Z,65.35
2017-03-16T04:14:27.173Z,65.73
2017-03-16T04:15:36.828Z,66.01
2017-03-16T04:16:46.798Z,65.44
2017-03-16T04:17:56.890Z,66.01
2017-03-16T04:19:07.104Z,66.01
2017-03-16T04:20:17.060Z,66.01
2017-03-16T04:21:26.958Z,66.11
2017-03-16T04:23:08.714Z,66.11
2017-03-16T04:24:18.878Z,65.92
2017-03-16T04:25:28.502Z,65.63
2017-03-16T04:26:38.186Z,66.11
2017-03-16T04:27:48.131Z,65.16
2017-03-16T04:28:58.068Z,65.54
2017-03-16T04:30:07.986Z,66.11
2017-03-16T04:31:17.886Z,66.58
2017-03-16T04:32:28.021Z,66.49
2017-03-16T04:33:37.607Z,66.39
2017-03-16T04:34:47.624Z,66.39
2017-03-16T04:35:57.792Z,66.3
2017-03-16T04:37:07.388Z,66.39
2017-03-16T04:38:17.355Z,66.3
2017-03-16T04:39:27.273Z,66.87
2017-03-16T04:40:37.189Z,67.06
2017-03-16T04:41:47.607Z,66.96
2017-03-16T04:42:57.536Z,66.67
2017-03-16T04:44:07.148Z,66.77
2017-03-16T04:45:17.049Z,66.87
2017-03-16T04:46:26.668Z,66.96
2017-03-16T04:47:36.503Z,67.25
2017-03-16T04:48:46.408Z,67.34
2017-03-16T04:49:56.340Z,67.06
2017-03-16T04:51:06.282Z,67.15
2017-03-16T04:52:16.276Z,67.15
2017-03-16T04:53:26.485Z,67.15
2017-03-16T04:54:36.400Z,67.44
2017-03-16T04:55:46.303Z,67.34
2017-03-16T04:56:55.914Z,67.44
2017-03-16T04:58:05.519Z,67.53
2017-03-16T04:59:15.808Z,67.53
2017-03-16T05:00:25.745Z,67.63
2017-03-16T05:01:35.668Z,67.53
2017-03-16T05:02:45.643Z,67.63
2017-03-16T05:03:55.577Z,67.88
2017-03-16T05:05:05.733Z,68.26
2017-03-16T05:06:15.687Z,68.29
2017-03-16T05:07:25.620Z,68.26
2017-03-16T05:08:35.223Z,68.29
2017-03-16T05:09:45.178Z,68.35
2017-03-16T05:10:55.385Z,68.16
2017-03-16T05:12:05.317Z,68.16
2017-03-16T05:13:15.232Z,68.29
2017-03-16T05:14:24.515Z,68.26
2017-03-16T05:15:34.111Z,68.1
2017-03-16T05:16:44.264Z,68.19
2017-03-16T05:17:54.273Z,68.01
2017-03-16T05:19:04.201Z,68.77
2017-03-16T05:20:14.167Z,68.77
2017-03-16T05:21:24.098Z,68.77
2017-03-16T05:22:33.946Z,68.77
2017-03-16T05:23:43.535Z,69.15
2017-03-16T05:24:53.466Z,68.96
2017-03-16T05:26:03.438Z,69.02
2017-03-16T05:27:13.352Z,69.05
2017-03-16T05:28:23.203Z,69.02
2017-03-16T05:29:32.804Z,69.02
2017-03-16T05:30:42.896Z,69.21
2017-03-16T05:31:52.821Z,68.92
2017-03-16T05:33:02.742Z,69.43
2017-03-16T05:34:12.897Z,69.11
2017-03-16T05:35:22.804Z,68.92
2017-03-16T05:36:32.410Z,68.83
2017-03-16T05:37:42.373Z,68.86
2017-03-16T05:38:52.360Z,68.86
2017-03-16T05:40:02.554Z,68.96
2017-03-16T05:41:12.471Z,69.05
2017-03-16T05:42:22.412Z,68.96
2017-03-16T05:43:32.134Z,68.86
2017-03-16T05:44:41.767Z,69.05
2017-03-16T05:45:51.929Z,68.58
2017-03-16T05:47:01.859Z,68.39
2017-03-16T05:48:11.982Z,68.96
2017-03-16T05:49:21.325Z,68.67
2017-03-16T05:50:31.246Z,68.1
2017-03-16T05:51:41.474Z,68.19
2017-03-16T05:52:51.508Z,68.48
2017-03-16T05:54:01.105Z,68.29
2017-03-16T05:55:10.714Z,68.29
2017-03-16T05:56:20.311Z,68.48
2017-03-16T05:57:30.205Z,68.01
2017-03-16T05:58:40.236Z,68.29
2017-03-16T05:59:50.164Z,68.1
2017-03-16T06:01:00.131Z,68.1
2017-03-16T06:02:09.734Z,68.39
2017-03-16T06:03:19.953Z,68.48
2017-03-16T06:04:29.875Z,68.19
2017-03-16T06:05:39.848Z,68.29
2017-03-16T06:06:49.477Z,68.48
2017-03-16T06:07:59.160Z,68.39
2017-03-16T06:09:09.026Z,68.1
2017-03-16T06:10:18.985Z,68.1
2017-03-16T06:11:28.936Z,68.19
2017-03-16T06:12:38.567Z,68.1
2017-03-16T06:13:48.547Z,68.29
2017-03-16T06:14:58.819Z,68.29
2017-03-16T06:16:08.767Z,68.1
2017-03-16T06:17:18.419Z,68.1
2017-03-16T06:18:28.331Z,67.44
2017-03-16T06:19:38.260Z,67.82
2017-03-16T06:20:48.145Z,67.82
2017-03-16T06:21:57.763Z,67.66
2017-03-16T06:23:07.702Z,67.34
2017-03-16T06:24:17.622Z,67.85
2017-03-16T06:25:27.547Z,68.04
2017-03-16T06:26:37.756Z,67.38
2017-03-16T06:27:47.689Z,67.85
2017-03-16T06:28:57.676Z,67.66
2017-03-16T06:30:07.607Z,67.66
2017-03-16T06:31:17.514Z,67.66
2017-03-16T06:32:27.411Z,67.57
2017-03-16T06:33:37.361Z,67.38
2017-03-16T06:34:47.301Z,67
2017-03-16T06:35:57.238Z,66.9
2017-03-16T06:37:07.148Z,66.9
2017-03-16T06:38:17.318Z,67
2017-03-16T06:39:26.587Z,66.9
2017-03-16T06:40:36.288Z,66.8
2017-03-16T06:41:46.222Z,66.9
2017-03-16T06:42:56.130Z,67
2017-03-16T06:44:06.310Z,66.8
2017-03-16T06:45:16.259Z,66.71
2017-03-16T06:46:26.138Z,66.42
2017-03-16T06:47:36.087Z,66.42
2017-03-16T06:48:45.776Z,66.52
2017-03-16T06:49:55.951Z,66.52
2017-03-16T06:51:05.581Z,66.33
2017-03-16T06:52:14.851Z,66.33
2017-03-16T06:53:24.493Z,66.52
2017-03-16T06:54:34.441Z,66.33
2017-03-16T06:55:44.913Z,66.46
2017-03-16T06:56:54.887Z,65.99
2017-03-16T06:58:04.809Z,66.27
2017-03-16T06:59:14.732Z,66.17
2017-03-16T07:00:24.648Z,65.6
2017-03-16T07:01:34.612Z,65.41
2017-03-16T07:02:44.233Z,65.6
2017-03-16T07:03:54.152Z,65.8
2017-03-16T07:05:04.061Z,66.08
2017-03-16T07:06:13.986Z,65.6
2017-03-16T07:07:24.258Z,65.6
2017-03-16T07:08:34.157Z,65.41
2017-03-16T07:09:43.753Z,65.51
2017-03-16T07:10:53.431Z,65.41
2017-03-16T07:12:03.419Z,65.22
2017-03-16T07:13:13.634Z,65.06
2017-03-16T07:14:23.589Z,65.03
2017-03-16T07:15:33.207Z,64.87
2017-03-16T07:16:43.121Z,64.78
2017-03-16T07:17:52.438Z,64.87
2017-03-16T07:19:02.606Z,64.4
2017-03-16T07:20:12.213Z,64.4
2017-03-16T07:21:21.825Z,64.21
2017-03-16T07:22:31.815Z,63.83
2017-03-16T07:23:41.767Z,63.64
2017-03-16T07:24:51.970Z,64.11
2017-03-16T07:26:01.930Z,64.02
2017-03-16T07:27:11.957Z,63.64
2017-03-16T07:28:21.920Z,63.73
2017-03-16T07:29:31.855Z,63.76
2017-03-16T07:30:42.049Z,63.48
2017-03-16T07:31:51.980Z,63.39
2017-03-16T07:33:01.998Z,63.48
2017-03-16T07:34:11.943Z,62.91
2017-03-16T07:35:21.917Z,62.91
2017-03-16T07:36:32.127Z,62.62
2017-03-16T07:37:41.912Z,62.05
2017-03-16T07:38:51.828Z,61.77
2017-03-16T07:40:01.430Z,61.51
2017-03-16T07:41:11.418Z,61.13
2017-03-16T07:42:21.683Z,61.13
2017-03-16T07:43:31.692Z,60.37
2017-03-16T07:44:41.371Z,60.37
2017-03-16T07:45:51.285Z,60.27
2017-03-16T07:47:01.278Z,59.16
2017-03-16T07:48:11.449Z,58.3
2017-03-16T07:49:21.385Z,58.3
2017-03-16T07:50:30.978Z,58.02
2017-03-16T07:51:40.909Z,57.28
2017-03-16T07:52:50.968Z,57
2017-03-16T07:54:01.222Z,56.81
2017-03-16T07:55:10.823Z,56.26
2017-03-16T07:56:20.815Z,56.26
2017-03-16T07:57:30.751Z,55.31
2017-03-16T07:58:40.394Z,54.83
2017-03-16T07:59:50.854Z,54.48
2017-03-16T08:01:00.573Z,53.91
2017-03-16T08:02:10.484Z,53.91
2017-03-16T08:03:20.666Z,53.27
2017-03-16T08:04:31.367Z,51.57
2017-03-16T08:05:41.802Z,50.48
2017-03-16T08:06:51.876Z,48.33
2017-03-16T08:08:02.161Z,45.23
2017-03-16T08:09:12.367Z,42.69
2017-03-16T08:10:23.015Z,43.4
2017-03-16T08:11:33.771Z,39.49
2017-03-16T08:12:44.005Z,40.56
2017-03-16T08:13:54.576Z,39.43
2017-03-16T08:15:05.136Z,34.16
2017-03-16T08:16:15.646Z,34.16
2017-03-16T08:17:26.462Z,34.25
2017-03-16T08:18:36.437Z,34.16
2017-03-16T08:19:47.898Z,31.08
2017-03-16T08:20:58.501Z,32.14
2017-03-16T08:22:09.029Z,32.25
2017-03-16T08:23:19.823Z,31.87
2017-03-16T08:24:29.993Z,33.31
2017-03-16T08:25:40.565Z,32.07
2017-03-16T08:26:51.253Z,30.83
2017-03-16T08:28:01.806Z,32.18
2017-03-16T08:29:12.602Z,28.44
2017-03-16T08:30:22.797Z,28.53
2017-03-16T08:31:33.390Z,28.42
2017-03-16T08:32:43.898Z,27.28
2017-03-16T08:33:54.484Z,26.79
2017-03-16T08:35:04.937Z,26.02
2017-03-16T08:36:15.186Z,25.54
2017-03-16T08:37:25.715Z,25.92
2017-03-16T08:38:36.262Z,26.02
2017-03-16T08:39:46.169Z,26.31
2017-03-16T08:40:56.454Z,26.51
2017-03-16T08:42:06.981Z,26.22
2017-03-16T08:43:17.579Z,25.93
2017-03-16T08:44:28.124Z,25.56
2017-03-16T08:45:38.623Z,25.66
2017-03-16T08:46:49.131Z,24.9
2017-03-16T08:47:59.369Z,24.99
2017-03-16T08:49:09.589Z,24.62
2017-03-16T08:50:19.821Z,23.56
2017-03-16T08:51:30.375Z,24.91
2017-03-16T08:52:40.864Z,23.57
2017-03-16T08:53:50.814Z,23.57
2017-03-16T08:55:02.285Z,23.1
2017-03-16T08:56:12.268Z,22.42
2017-03-16T08:57:22.778Z,21.47
2017-03-16T08:58:33.248Z,19.82
2017-03-16T08:59:43.788Z,19.82
2017-03-16T09:00:54.026Z,21.37
2017-03-16T09:02:04.680Z,21.17
2017-03-16T09:03:15.494Z,20.59
2017-03-16T09:04:26.307Z,21.27
2017-03-16T09:05:36.982Z,20.68
2017-03-16T09:06:47.565Z,20.5
2017-03-16T09:07:58.077Z,20.5
2017-03-16T09:09:08.645Z,20.78
2017-03-16T09:10:19.715Z,20.59
2017-03-16T09:11:30.276Z,20.31
2017-03-16T09:12:41.895Z,20.4
2017-03-16T09:13:52.396Z,20.01
2017-03-16T09:15:03.002Z,20.69
2017-03-16T09:16:13.787Z,20.89
2017-03-16T09:17:24.318Z,19.73
2017-03-16T09:18:34.852Z,19.07
2017-03-16T09:19:45.165Z,18.59
2017-03-16T09:20:55.124Z,18.97
2017-03-16T09:22:05.899Z,19.26
2017-03-16T09:23:16.455Z,19.06
2017-03-16T09:24:27.103Z,18.96
2017-03-16T09:25:37.722Z,19.83
2017-03-16T09:26:48.284Z,18.96
2017-03-16T09:27:59.084Z,19.26
2017-03-16T09:29:09.638Z,19.07
2017-03-16T09:30:20.163Z,18.59
2017-03-16T09:31:30.697Z,18.1
2017-03-16T09:32:40.851Z,17.61
2017-03-16T09:33:51.732Z,17.71
2017-03-16T09:35:02.296Z,17.9
2017-03-16T09:36:12.817Z,17.52
2017-03-16T09:37:23.468Z,16.94
2017-03-16T09:38:34.102Z,16.47
2017-03-16T09:39:44.901Z,16.96
2017-03-16T09:40:55.424Z,17.14
2017-03-16T09:42:05.946Z,16.94
2017-03-16T09:43:16.145Z,16.47
2017-03-16T09:44:26.364Z,16.17
2017-03-16T09:45:37.138Z,15.01
2017-03-16T09:46:47.674Z,15.41
2017-03-16T09:47:58.327Z,15.79
2017-03-16T09:49:09.878Z,15.69
2017-03-16T09:50:20.656Z,15.5
2017-03-16T09:51:31.532Z,15.51
2017-03-16T09:52:42.114Z,15.61
2017-03-16T09:53:52.807Z,14.92
2017-03-16T09:55:03.335Z,14.84
2017-03-16T09:56:13.583Z,14.16
2017-03-16T09:57:24.090Z,14.25
2017-03-16T09:58:34.377Z,13.77
2017-03-16T09:59:44.642Z,13.48
2017-03-16T10:00:54.916Z,13.57
2017-03-16T10:02:06.116Z,14.25
2017-03-16T10:03:16.987Z,14.06
2017-03-16T10:04:27.603Z,14.25
2017-03-16T10:05:37.956Z,14.24
2017-03-16T10:06:48.174Z,15.01
2017-03-16T10:07:58.417Z,15
2017-03-16T10:09:09.318Z,15.86
2017-03-16T10:10:19.935Z,16.44
2017-03-16T10:11:30.528Z,17.1
2017-03-16T10:12:41.096Z,18.06
2017-03-16T10:13:51.626Z,18.25
2017-03-16T10:15:02.435Z,18.34
2017-03-16T10:16:13.010Z,18.25
2017-03-16T10:17:24.601Z,17.68
2017-03-16T10:18:36.096Z,18.17
2017-03-16T10:19:46.644Z,18.55
2017-03-16T10:20:57.506Z,18.76
2017-03-16T10:22:08.085Z,18.95
2017-03-16T10:23:18.774Z,18.76
2017-03-16T10:24:28.997Z,17.79
2017-03-16T10:25:39.283Z,17.89
2017-03-16T10:26:50.195Z,17.11
2017-03-16T10:28:00.773Z,17.69
2017-03-16T10:29:10.973Z,18.38
2017-03-16T10:30:20.858Z,18.18
2017-03-16T10:31:31.073Z,18.55
2017-03-16T10:32:41.627Z,18.36
2017-03-16T10:33:52.848Z,17.68
2017-03-16T10:35:04.025Z,17.77
2017-03-16T10:36:14.652Z,17.76
2017-03-16T10:37:25.165Z,18.24
2017-03-16T10:38:35.929Z,18.53
2017-03-16T10:39:46.574Z,18.33
2017-03-16T10:40:56.823Z,18.24
2017-03-16T10:42:07.374Z,17.95
2017-03-16T10:43:17.926Z,17.08
2017-03-16T10:44:28.502Z,17.18
2017-03-16T10:45:39.070Z,17.47
2017-03-16T10:46:49.670Z,16.99
2017-03-16T10:48:00.342Z,17.09
2017-03-16T10:49:10.862Z,17.67
2017-03-16T10:50:21.646Z,17.96
2017-03-16T10:51:32.252Z,17.47
2017-03-16T10:52:42.481Z,17.56
2017-03-16T10:53:53.062Z,18.04
2017-03-16T10:55:03.623Z,18.32
2017-03-16T10:56:14.430Z,18.32
2017-03-16T10:57:24.983Z,18.24
2017-03-16T10:58:35.208Z,18.33
2017-03-16T10:59:45.427Z,18.24
2017-03-16T11:00:55.963Z,18.53
2017-03-16T11:02:06.763Z,19.01
2017-03-16T11:03:17.336Z,18.14
2017-03-16T11:04:28.376Z,18.14
2017-03-16T11:05:38.921Z,18.24
2017-03-16T11:06:49.520Z,18.33
2017-03-16T11:08:00.313Z,18.72
2017-03-16T11:09:10.839Z,18.72
2017-03-16T11:10:21.074Z,19.1
2017-03-16T11:11:31.285Z,18.73
2017-03-16T11:12:41.844Z,18.92
2017-03-16T11:13:52.693Z,16.12
2017-03-16T11:15:03.400Z,16.03
2017-03-16T11:16:14.006Z,16.12
2017-03-16T11:17:24.583Z,15.74
2017-03-16T11:18:35.116Z,15.65
2017-03-16T11:19:45.623Z,15.45
2017-03-16T11:20:57.159Z,15.73
2017-03-16T11:22:07.663Z,16.22
2017-03-16T11:23:18.251Z,16.13
2017-03-16T11:24:28.457Z,15.45
2017-03-16T11:25:39.252Z,14.97
2017-03-16T11:26:49.446Z,15.74
2017-03-16T11:27:59.965Z,15.45
2017-03-16T11:29:10.545Z,14.39
2017-03-16T11:30:21.221Z,14.2
2017-03-16T11:31:31.593Z,14.2
2017-03-16T11:32:42.226Z,14.2
2017-03-16T11:33:52.765Z,14.59
2017-03-16T11:35:02.931Z,14.39
2017-03-16T11:36:13.810Z,15.16
2017-03-16T11:37:25.579Z,15.64
2017-03-16T11:38:36.251Z,15.45
2017-03-16T11:39:46.785Z,15.55
2017-03-16T11:40:57.355Z,15.84
2017-03-16T11:42:07.577Z,15.45
2017-03-16T11:43:18.355Z,15.45
2017-03-16T11:44:28.896Z,15.65
2017-03-16T11:45:40.104Z,15.65
2017-03-16T11:46:50.720Z,16.42
2017-03-16T11:48:00.614Z,16.23
2017-03-16T11:49:11.218Z,16.52
2017-03-16T11:50:21.848Z,17.01
2017-03-16T11:51:32.436Z,17.01
2017-03-16T11:52:43.964Z,16.91
2017-03-16T11:53:54.217Z,17.2
2017-03-16T11:55:04.691Z,17.98
2017-03-16T11:56:14.889Z,18.27
2017-03-16T11:57:25.443Z,18.08
2017-03-16T11:58:36.060Z,17.21
2017-03-16T11:59:46.671Z,17.6
2017-03-16T12:00:58.118Z,17.02
2017-03-16T12:02:09.645Z,17.5
2017-03-16T12:03:20.257Z,17.98
2017-03-16T12:04:30.527Z,18.08
2017-03-16T12:05:41.066Z,18.18
2017-03-16T12:06:51.944Z,17.89
2017-03-16T12:08:02.490Z,18.08
2017-03-16T12:09:13.422Z,17.11
2017-03-16T12:10:24.059Z,16.92
2017-03-16T12:11:34.605Z,17.21
2017-03-16T12:12:45.159Z,17.68
2017-03-16T12:13:55.723Z,18.55
2017-03-16T12:15:06.068Z,18.84
2017-03-16T12:16:16.347Z,19.12
2017-03-16T12:17:27.010Z,19.03
2017-03-16T12:18:37.483Z,18.93
2017-03-16T12:19:47.820Z,18.55
2017-03-16T12:20:58.416Z,18.74
2017-03-16T12:22:08.967Z,18.74
2017-03-16T12:23:19.572Z,18.74
2017-03-16T12:24:30.407Z,18.85
2017-03-16T12:25:40.975Z,18.55
2017-03-16T12:26:51.208Z,18.18
2017-03-16T12:28:01.438Z,17.89
2017-03-16T12:29:11.760Z,17.79
2017-03-16T12:30:22.680Z,17.79
2017-03-16T12:31:33.217Z,17.02
2017-03-16T12:32:43.430Z,17.11
2017-03-16T12:33:53.986Z,17.79
2017-03-16T12:35:04.253Z,18.07
2017-03-16T12:36:14.781Z,17.68
2017-03-16T12:37:25.332Z,17.78
2017-03-16T12:38:35.882Z,17.87
2017-03-16T12:39:46.771Z,18.06
2017-03-16T12:40:57.345Z,17.97
2017-03-16T12:42:07.831Z,18.16
2017-03-16T12:43:18.372Z,18.45
2017-03-16T12:44:29.571Z,18.64
2017-03-16T12:45:41.109Z,17.78
2017-03-16T12:46:51.626Z,17.3
2017-03-16T12:48:02.500Z,17.1
2017-03-16T12:49:13.008Z,17.1
2017-03-16T12:50:24.524Z,17.19
2017-03-16T12:51:35.038Z,17.2
2017-03-16T12:52:45.636Z,17.48
2017-03-16T12:53:56.459Z,17.1
2017-03-16T12:55:07.123Z,16.9
2017-03-16T12:56:17.472Z,17.58
2017-03-16T12:57:28.077Z,17.1
2017-03-16T12:58:38.310Z,17
2017-03-16T12:59:49.105Z,15.75
2017-03-16T13:00:59.725Z,15.66
2017-03-16T13:02:10.254Z,16.04
2017-03-16T13:03:20.792Z,15.36
2017-03-16T13:04:32.322Z,14.87
2017-03-16T13:05:42.823Z,14.97
2017-03-16T13:06:53.384Z,15.55
2017-03-16T13:08:03.931Z,15.45
2017-03-16T13:09:14.649Z,16.31
2017-03-16T13:10:25.169Z,16.12
2017-03-16T13:11:36.126Z,16.31
2017-03-16T13:12:46.654Z,16.21
2017-03-16T13:13:56.932Z,16.2
2017-03-16T13:15:07.487Z,17.17
2017-03-16T13:16:18.104Z,17.07
2017-03-16T13:17:28.894Z,17.16
2017-03-16T13:18:39.264Z,17.74
2017-03-16T13:19:49.186Z,17.25
2017-03-16T13:20:59.729Z,16.87
2017-03-16T13:22:10.275Z,17.25
2017-03-16T13:23:21.064Z,17.64
2017-03-16T13:24:32.339Z,17.73
2017-03-16T13:25:42.978Z,18.3
2017-03-16T13:26:53.531Z,18.88
2017-03-16T13:28:04.141Z,18.98
2017-03-16T13:29:15.016Z,19.46
2017-03-16T13:30:25.602Z,18.88
2017-03-16T13:31:35.839Z,19.65
2017-03-16T13:32:46.556Z,19.55
2017-03-16T13:33:57.102Z,19.93
2017-03-16T13:35:07.947Z,20.4
2017-03-16T13:36:18.162Z,20.21
2017-03-16T13:37:28.072Z,20.02
2017-03-16T13:38:38.762Z,19.54
2017-03-16T13:39:49.317Z,19.54
2017-03-16T13:40:59.826Z,19.83
2017-03-16T13:42:10.443Z,20.4
2017-03-16T13:43:21.281Z,19.82
2017-03-16T13:44:31.964Z,19.53
2017-03-16T13:45:42.169Z,19.72
2017-03-16T13:46:53.047Z,20.3
2017-03-16T13:48:03.592Z,20.48
2017-03-16T13:49:13.233Z,20.4
2017-03-16T13:50:23.212Z,20.2
2017-03-16T13:51:33.178Z,20.67
2017-03-16T13:52:43.254Z,20.97
2017-03-16T13:53:53.187Z,21.25
2017-03-16T13:55:03.138Z,21.54
2017-03-16T13:56:13.113Z,21.62
2017-03-16T13:57:23.079Z,21.44
2017-03-16T13:58:33.371Z,21.62
2017-03-16T13:59:43.075Z,21.62
2017-03-16T14:00:53.048Z,21.72
2017-03-16T14:02:02.683Z,21.92
2017-03-16T14:03:12.325Z,22.01
2017-03-16T14:04:22.599Z,22.3
2017-03-16T14:05:32.606Z,22.88
2017-03-16T14:06:42.435Z,23.16
2017-03-16T14:07:52.364Z,22.69
2017-03-16T14:09:02.351Z,22.2
2017-03-16T14:10:12.271Z,21.72
2017-03-16T14:11:22.492Z,22.09
2017-03-16T14:12:32.473Z,22.19
2017-03-16T14:13:42.420Z,22.38
2017-03-16T14:14:52.117Z,22.77
2017-03-16T14:16:01.997Z,22.58
2017-03-16T14:17:11.992Z,22.86
2017-03-16T14:18:21.978Z,22.48
2017-03-16T14:19:31.618Z,23.06
2017-03-16T14:20:41.604Z,23.25
2017-03-16T14:21:51.840Z,23.63
2017-03-16T14:23:01.596Z,23.63
2017-03-16T14:24:11.251Z,23.63
2017-03-16T14:25:21.280Z,23.54
2017-03-16T14:26:31.208Z,23.44
2017-03-16T14:27:41.391Z,23.54
2017-03-16T14:28:51.134Z,23.43
2017-03-16T14:30:00.798Z,24.01
2017-03-16T14:31:10.452Z,24.1
2017-03-16T14:32:20.391Z,24.2
2017-03-16T14:33:30.587Z,24.49
2017-03-16T14:34:40.582Z,24.2
2017-03-16T14:35:50.660Z,24.2
2017-03-16T14:37:00.792Z,24.39
2017-03-16T14:38:10.752Z,24.1
2017-03-16T14:39:21.191Z,23.82
2017-03-16T14:40:31.163Z,24.1
2017-03-16T14:41:41.086Z,24.29
2017-03-16T14:42:51.055Z,24.39
2017-03-16T14:44:00.703Z,24.39
2017-03-16T14:45:10.682Z,24.57
2017-03-16T14:46:20.618Z,24.49
2017-03-16T14:47:30.600Z,24.48
2017-03-16T14:48:40.583Z,24.09
2017-03-16T14:49:50.514Z,24.09
2017-03-16T14:51:00.701Z,24.09
2017-03-16T14:52:10.369Z,24.38
2017-03-16T14:53:20.351Z,24.57
2017-03-16T14:54:30.324Z,24.66
2017-03-16T14:55:40.343Z,24.38
2017-03-16T14:56:50.576Z,24.66
2017-03-16T14:58:00.238Z,24.76
2017-03-16T14:59:10.205Z,24.66
2017-03-16T15:00:20.201Z,24.57
2017-03-16T15:01:29.804Z,24.76
2017-03-16T15:02:40.058Z,24.86
2017-03-16T15:03:49.987Z,24.95
2017-03-16T15:05:00.080Z,24.86
2017-03-16T15:06:10.031Z,24.76
2017-03-16T15:07:20.025Z,24.86
2017-03-16T15:08:30.221Z,25.24